createdAt,value
2022-08-22T00:02:03.044Z,17.78
2022-08-22T00:05:17.722Z,17.81
2022-08-22T00:08:55.035Z,17.82
2022-08-22T00:12:06.500Z,17.78
2022-08-22T00:15:43.171Z,17.76
2022-08-22T00:19:12.176Z,17.80
2022-08-22T00:22:36.199Z,17.77
2022-08-22T00:26:11.217Z,17.74
2022-08-22T00:29:26.997Z,17.77
2022-08-22T00:32:37.680Z,17.82
2022-08-22T00:35:45.346Z,17.78
2022-08-22T00:38:58.978Z,17.81
2022-08-22T00:42:29.045Z,17.80
2022-08-22T00:45:59.439Z,17.77
2022-08-22T00:49:11.475Z,17.74
2022-08-22T00:52:44.001Z,17.73
2022-08-22T00:56:23.766Z,17.64
2022-08-22T00:59:42.911Z,17.61
2022-08-22T01:03:21.137Z,17.60
2022-08-22T01:07:11.240Z,17.56
2022-08-22T01:10:35.473Z,17.58
2022-08-22T01:13:56.975Z,17.61
2022-08-22T01:17:00.755Z,17.56
2022-08-22T01:20:22.143Z,17.66
2022-08-22T01:23:46.157Z,17.64
2022-08-22T01:26:56.512Z,17.65
2022-08-22T01:30:41.244Z,17.67
2022-08-22T01:34:24.847Z,17.65
2022-08-22T01:37:54.447Z,17.67
2022-08-22T01:41:12.121Z,17.64
2022-08-22T01:44:21.000Z,17.61
2022-08-22T01:47:37.389Z,17.60
2022-08-22T01:50:53.145Z,17.61
2022-08-22T01:54:05.322Z,17.63
2022-08-22T01:57:09.211Z,17.66
2022-08-22T02:00:17.852Z,17.61
2022-08-22T02:03:56.920Z,17.66
2022-08-22T02:07:08.913Z,17.61
2022-08-22T02:11:10.463Z,17.64
2022-08-22T02:14:21.933Z,17.61
2022-08-22T02:17:50.353Z,17.63
2022-08-22T02:21:25.077Z,17.71
2022-08-22T02:24:40.652Z,17.74
2022-08-22T02:27:59.688Z,17.70
2022-08-22T02:31:07.533Z,17.65
2022-08-22T02:34:38.607Z,17.61
2022-08-22T02:38:01.778Z,17.64
2022-08-22T02:41:19.547Z,17.72
2022-08-22T02:44:35.429Z,17.68
2022-08-22T02:47:56.821Z,17.61
2022-08-22T02:51:32.319Z,17.62
2022-08-22T02:54:59.658Z,17.57
2022-08-22T02:58:17.855Z,17.52
2022-08-22T03:01:33.285Z,17.55
2022-08-22T03:04:42.008Z,17.49
2022-08-22T03:07:56.883Z,17.54
2022-08-22T03:11:17.799Z,17.58
2022-08-22T03:14:35.577Z,17.62
2022-08-22T03:18:00.190Z,17.57
2022-08-22T03:21:41.076Z,17.57
2022-08-22T03:24:55.552Z,17.55
2022-08-22T03:28:08.401Z,17.54
2022-08-22T03:31:13.179Z,17.57
2022-08-22T03:34:26.411Z,17.58
2022-08-22T03:37:35.257Z,17.62
2022-08-22T03:40:53.005Z,17.65
2022-08-22T03:44:16.763Z,17.66
2022-08-22T03:47:28.628Z,17.71
2022-08-22T03:51:08.279Z,17.74
2022-08-22T03:54:33.205Z,17.79
2022-08-22T03:58:04.050Z,17.74
2022-08-22T04:01:19.359Z,17.73
2022-08-22T04:04:40.454Z,17.74
2022-08-22T04:08:26.255Z,17.81
2022-08-22T04:12:01.370Z,17.84
2022-08-22T04:15:26.044Z,17.89
2022-08-22T04:19:00.702Z,17.95
2022-08-22T04:22:13.920Z,18.09
2022-08-22T04:25:29.844Z,18.06
2022-08-22T04:28:46.591Z,18.13
2022-08-22T04:32:16.420Z,18.22
2022-08-22T04:35:34.649Z,18.33
2022-08-22T04:38:47.777Z,18.39
2022-08-22T04:42:10.923Z,18.43
2022-08-22T04:45:24.141Z,18.50
2022-08-22T04:48:36.085Z,18.61
2022-08-22T04:51:47.777Z,18.70
2022-08-22T04:55:08.666Z,18.78
2022-08-22T04:58:39.198Z,18.88
2022-08-22T05:01:56.523Z,18.95
2022-08-22T05:05:13.581Z,19.07
2022-08-22T05:08:23.701Z,19.16
2022-08-22T05:11:27.777Z,19.22
2022-08-22T05:15:07.212Z,19.28
2022-08-22T05:18:24.048Z,19.37
2022-08-22T05:21:36.020Z,19.44
2022-08-22T05:24:53.662Z,19.55
2022-08-22T05:28:08.584Z,19.55
2022-08-22T05:31:18.596Z,19.58
2022-08-22T05:34:34.355Z,19.63
2022-08-22T05:37:40.373Z,19.64
2022-08-22T05:40:44.922Z,19.65
2022-08-22T05:43:48.807Z,19.64
2022-08-22T05:46:57.388Z,19.64
2022-08-22T05:50:05.434Z,19.66
2022-08-22T05:53:12.833Z,19.74
2022-08-22T05:56:28.238Z,19.81
2022-08-22T05:59:34.644Z,19.82
2022-08-22T06:03:09.431Z,20.02
2022-08-22T06:06:18.322Z,20.11
2022-08-22T06:09:39.840Z,20.23
2022-08-22T06:13:02.535Z,20.27
2022-08-22T06:16:34.233Z,20.21
2022-08-22T06:19:42.058Z,20.38
2022-08-22T06:22:51.801Z,20.55
2022-08-22T06:26:01.620Z,20.74
2022-08-22T06:29:07.351Z,20.85
2022-08-22T06:32:52.876Z,20.97
2022-08-22T06:36:09.886Z,21.05
2022-08-22T06:39:31.237Z,21.21
2022-08-22T06:42:39.142Z,21.38
2022-08-22T06:45:41.971Z,21.47
2022-08-22T06:48:45.642Z,21.43
2022-08-22T06:51:49.951Z,21.59
2022-08-22T06:55:00.411Z,21.67
2022-08-22T06:58:07.306Z,21.72
2022-08-22T07:01:18.192Z,21.90
2022-08-22T07:04:26.591Z,22.19
2022-08-22T07:07:29.100Z,22.56
2022-08-22T07:10:34.936Z,22.67
2022-08-22T07:13:43.083Z,22.86
2022-08-22T07:16:57.288Z,22.71
2022-08-22T07:20:23.997Z,22.53
2022-08-22T07:23:31.515Z,22.56
2022-08-22T07:27:02.168Z,22.97
2022-08-22T07:30:13.080Z,22.93
2022-08-22T07:33:39.137Z,22.77
2022-08-22T07:37:14.798Z,22.70
2022-08-22T07:41:08.734Z,22.59
2022-08-22T07:44:22.698Z,22.91
2022-08-22T07:47:34.271Z,23.15
2022-08-22T07:51:14.865Z,23.07
2022-08-22T07:54:27.158Z,22.80
2022-08-22T07:57:32.975Z,22.84
2022-08-22T08:00:43.309Z,23.10
2022-08-22T08:03:57.179Z,23.51
2022-08-22T08:07:03.044Z,23.93
2022-08-22T08:10:13.153Z,23.95
2022-08-22T08:13:24.540Z,23.84
2022-08-22T08:16:31.850Z,23.63
2022-08-22T08:19:38.302Z,23.63
2022-08-22T08:22:44.693Z,23.71
2022-08-22T08:26:12.271Z,23.67
2022-08-22T08:29:18.706Z,23.60
2022-08-22T08:32:27.890Z,23.53
2022-08-22T08:35:42.361Z,23.66
2022-08-22T08:39:41.588Z,23.79
2022-08-22T08:43:27.456Z,23.78
2022-08-22T08:46:55.579Z,23.74
2022-08-22T08:50:01.799Z,23.72
2022-08-22T08:53:25.671Z,23.56
2022-08-22T08:56:38.005Z,23.49
2022-08-22T08:59:44.081Z,23.47
2022-08-22T09:02:59.044Z,23.81
2022-08-22T09:06:10.661Z,23.93
2022-08-22T09:09:52.378Z,24.12
2022-08-22T09:13:29.611Z,24.15
2022-08-22T09:17:15.425Z,24.07
2022-08-22T09:20:24.497Z,24.01
2022-08-22T09:24:02.349Z,23.94
2022-08-22T09:27:25.129Z,24.28
2022-08-22T09:30:46.318Z,25.01
2022-08-22T09:34:43.364Z,25.28
2022-08-22T09:37:59.083Z,25.46
2022-08-22T09:41:40.777Z,25.48
2022-08-22T09:45:11.826Z,25.35
2022-08-22T09:48:36.220Z,25.09
2022-08-22T09:52:03.663Z,24.97
2022-08-22T09:55:50.079Z,24.71
2022-08-22T09:59:12.040Z,24.52
2022-08-22T10:02:20.396Z,24.38
2022-08-22T10:05:43.947Z,24.28
2022-08-22T10:09:14.176Z,24.21
2022-08-22T10:12:35.167Z,24.20
2022-08-22T10:15:45.896Z,24.34
2022-08-22T10:19:20.146Z,24.43
2022-08-22T10:22:40.852Z,24.74
2022-08-22T10:25:51.653Z,24.82
2022-08-22T10:29:09.200Z,25.04
2022-08-22T10:32:37.850Z,25.24
2022-08-22T10:35:43.633Z,25.51
2022-08-22T10:38:53.317Z,25.54
2022-08-22T10:42:23.291Z,25.43
2022-08-22T10:45:39.739Z,25.66
2022-08-22T10:48:48.934Z,26.19
2022-08-22T10:52:06.531Z,26.36
2022-08-22T10:55:25.862Z,26.91
2022-08-22T10:58:36.879Z,27.31
2022-08-22T11:01:51.184Z,27.18
2022-08-22T11:05:00.116Z,27.31
2022-08-22T11:08:34.707Z,27.10
2022-08-22T11:11:54.203Z,27.20
2022-08-22T11:15:09.048Z,27.52
2022-08-22T11:18:20.857Z,27.78
2022-08-22T11:21:46.170Z,27.61
2022-08-22T11:25:11.250Z,27.60
2022-08-22T11:28:41.865Z,27.54
2022-08-22T11:32:11.523Z,27.80
2022-08-22T11:35:24.018Z,27.93
2022-08-22T11:38:33.327Z,27.98
2022-08-22T11:41:41.538Z,27.89
2022-08-22T11:44:54.339Z,27.44
2022-08-22T11:48:02.329Z,27.00
2022-08-22T11:51:15.437Z,26.61
2022-08-22T11:54:30.962Z,26.10
2022-08-22T11:57:55.989Z,25.85
2022-08-22T12:01:09.631Z,25.77
2022-08-22T12:04:34.346Z,25.42
2022-08-22T12:07:50.548Z,25.14
2022-08-22T12:11:07.557Z,25.04
2022-08-22T12:14:28.709Z,25.05
2022-08-22T12:18:01.599Z,25.19
2022-08-22T12:21:32.673Z,25.33
2022-08-22T12:25:10.979Z,25.62
2022-08-22T12:28:32.496Z,26.14
2022-08-22T12:32:28.569Z,26.35
2022-08-22T12:35:30.980Z,26.72
2022-08-22T12:39:00.257Z,26.89
2022-08-22T12:42:41.862Z,27.40
2022-08-22T12:46:15.692Z,27.76
2022-08-22T12:49:22.756Z,27.90
2022-08-22T12:52:53.681Z,27.80
2022-08-22T12:56:12.276Z,27.48
2022-08-22T12:59:32.496Z,27.31
2022-08-22T13:02:39.721Z,27.41
2022-08-22T13:05:56.852Z,27.58
2022-08-22T13:09:19.794Z,27.88
2022-08-22T13:12:44.608Z,28.12
2022-08-22T13:15:57.907Z,27.94
2022-08-22T13:19:07.593Z,27.96
2022-08-22T13:22:16.857Z,27.90
2022-08-22T13:25:25.379Z,27.87
2022-08-22T13:28:31.869Z,27.61
2022-08-22T13:31:38.695Z,26.80
2022-08-22T13:35:00.446Z,26.09
2022-08-22T13:38:12.332Z,25.73
2022-08-22T13:41:42.627Z,25.26
2022-08-22T13:44:54.649Z,24.72
2022-08-22T13:48:03.701Z,23.92
2022-08-22T13:51:25.137Z,23.14
2022-08-22T13:54:53.104Z,22.49
2022-08-22T13:58:07.660Z,22.09
2022-08-22T14:01:54.415Z,21.68
2022-08-22T14:05:01.281Z,21.41
2022-08-22T14:08:15.386Z,21.22
2022-08-22T14:11:27.483Z,21.45
2022-08-22T14:14:35.242Z,21.59
2022-08-22T14:17:43.611Z,21.94
2022-08-22T14:20:51.415Z,22.35
2022-08-22T14:24:00.138Z,22.67
2022-08-22T14:27:09.657Z,22.72
2022-08-22T14:30:17.049Z,22.67
2022-08-22T14:33:48.028Z,22.85
2022-08-22T14:37:01.793Z,22.58
2022-08-22T14:40:10.776Z,22.20
2022-08-22T14:43:31.910Z,21.77
2022-08-22T14:46:47.783Z,21.32
2022-08-22T14:49:56.815Z,21.09
2022-08-22T14:53:09.618Z,21.05
2022-08-22T14:56:24.889Z,21.09
2022-08-22T14:59:50.370Z,21.15
2022-08-22T15:03:05.413Z,21.32
2022-08-22T15:06:12.786Z,21.45
2022-08-22T15:09:36.371Z,21.59
2022-08-22T15:12:55.766Z,21.67
2022-08-22T15:16:05.660Z,21.93
2022-08-22T15:19:45.728Z,21.91
2022-08-22T15:22:49.562Z,22.13
2022-08-22T15:26:13.257Z,22.15
2022-08-22T15:29:25.298Z,22.20
2022-08-22T15:32:32.303Z,22.33
2022-08-22T15:35:38.870Z,22.43
2022-08-22T15:38:47.895Z,22.46
2022-08-22T15:42:10.075Z,22.53
2022-08-22T15:45:29.805Z,22.71
2022-08-22T15:48:42.834Z,22.57
2022-08-22T15:52:00.926Z,22.65
2022-08-22T15:55:15.799Z,22.59
2022-08-22T15:58:24.643Z,22.40
2022-08-22T16:01:49.998Z,22.25
2022-08-22T16:05:05.692Z,21.96
2022-08-22T16:08:14.263Z,21.86
2022-08-22T16:11:23.766Z,21.81
2022-08-22T16:14:35.855Z,21.93
2022-08-22T16:17:43.064Z,22.09
2022-08-22T16:20:53.034Z,22.08
2022-08-22T16:23:58.707Z,22.05
2022-08-22T16:27:18.945Z,22.12
2022-08-22T16:30:33.504Z,22.16
2022-08-22T16:33:40.075Z,22.07
2022-08-22T16:36:49.082Z,21.96
2022-08-22T16:40:09.570Z,21.90
2022-08-22T16:43:19.919Z,21.81
2022-08-22T16:46:33.126Z,21.66
2022-08-22T16:49:53.038Z,21.51
2022-08-22T16:53:20.536Z,21.31
2022-08-22T16:57:04.061Z,21.25
2022-08-22T17:00:22.761Z,21.10
2022-08-22T17:03:31.924Z,21.10
2022-08-22T17:06:49.508Z,20.97
2022-08-22T17:09:55.245Z,20.78
2022-08-22T17:13:27.408Z,20.87
2022-08-22T17:16:39.835Z,20.82
2022-08-22T17:20:01.368Z,20.88
2022-08-22T17:23:11.879Z,20.80
2022-08-22T17:26:34.578Z,20.77
2022-08-22T17:29:51.999Z,20.77
2022-08-22T17:33:09.821Z,20.66
2022-08-22T17:36:26.336Z,20.73
2022-08-22T17:40:04.446Z,20.61
2022-08-22T17:43:16.478Z,20.58
2022-08-22T17:46:46.738Z,20.55
2022-08-22T17:50:19.668Z,20.43
2022-08-22T17:53:27.920Z,20.40
2022-08-22T17:56:50.145Z,20.28
2022-08-22T18:00:15.926Z,20.26
2022-08-22T18:03:31.603Z,20.15
2022-08-22T18:06:38.804Z,20.05
2022-08-22T18:09:59.689Z,20.01
2022-08-22T18:13:14.979Z,20.00
2022-08-22T18:16:47.332Z,19.94
2022-08-22T18:19:54.137Z,19.84
2022-08-22T18:23:02.327Z,19.58
2022-08-22T18:26:27.744Z,19.35
2022-08-22T18:29:42.699Z,19.23
2022-08-22T18:33:13.701Z,19.19
2022-08-22T18:36:17.346Z,19.03
2022-08-22T18:39:50.748Z,18.97
2022-08-22T18:43:05.797Z,18.88
2022-08-22T18:46:30.174Z,18.80
2022-08-22T18:49:40.237Z,18.88
2022-08-22T18:52:42.866Z,18.85
2022-08-22T18:56:13.209Z,18.91
2022-08-22T18:59:21.838Z,18.98
2022-08-22T19:03:14.629Z,18.95
2022-08-22T19:06:32.073Z,18.94
2022-08-22T19:10:04.492Z,18.92
2022-08-22T19:13:39.048Z,18.94
2022-08-22T19:17:23.301Z,19.05
2022-08-22T19:20:54.473Z,19.01
2022-08-22T19:23:58.004Z,18.95
2022-08-22T19:27:18.772Z,18.98
2022-08-22T19:30:33.773Z,19.03
2022-08-22T19:33:41.791Z,19.07
2022-08-22T19:36:46.287Z,19.03
2022-08-22T19:39:51.497Z,19.05
2022-08-22T19:43:26.352Z,19.03
2022-08-22T19:46:39.709Z,19.01
2022-08-22T19:49:49.389Z,19.03
2022-08-22T19:53:18.763Z,19.05
2022-08-22T19:56:52.571Z,19.13
2022-08-22T20:00:08.370Z,19.17
2022-08-22T20:03:31.110Z,19.15
2022-08-22T20:06:44.988Z,19.04
2022-08-22T20:10:19.157Z,19.00
2022-08-22T20:13:25.310Z,19.00
2022-08-22T20:16:58.919Z,18.94
2022-08-22T20:20:19.234Z,18.97
2022-08-22T20:23:28.348Z,18.98
2022-08-22T20:26:31.643Z,18.92
2022-08-22T20:29:38.042Z,18.92
2022-08-22T20:32:58.002Z,18.94
2022-08-22T20:36:05.739Z,18.97
2022-08-22T20:39:11.217Z,18.96
2022-08-22T20:42:16.100Z,18.94
2022-08-22T20:45:22.164Z,18.97
2022-08-22T20:48:41.025Z,18.89
2022-08-22T20:51:52.136Z,18.74
2022-08-22T20:55:31.582Z,18.63
2022-08-22T20:58:39.970Z,18.50
2022-08-22T21:01:43.432Z,18.56
2022-08-22T21:05:00.612Z,18.56
2022-08-22T21:08:15.100Z,18.55
2022-08-22T21:11:40.798Z,18.49
2022-08-22T21:14:46.362Z,18.46
2022-08-22T21:17:50.281Z,18.52
2022-08-22T21:20:52.952Z,18.49
2022-08-22T21:24:00.560Z,18.46
2022-08-22T21:27:06.638Z,18.45
2022-08-22T21:30:11.364Z,18.47
2022-08-22T21:33:23.630Z,18.48
2022-08-22T21:36:31.160Z,18.49
2022-08-22T21:39:44.152Z,18.55
2022-08-22T21:43:08.371Z,18.67
2022-08-22T21:46:10.973Z,18.65
2022-08-22T21:49:24.556Z,18.70
2022-08-22T21:52:29.289Z,18.70
2022-08-22T21:55:47.937Z,18.59
2022-08-22T21:58:50.473Z,18.59
2022-08-22T22:01:55.772Z,18.57
2022-08-22T22:05:00.709Z,18.60
2022-08-22T22:08:04.751Z,18.64
2022-08-22T22:11:13.527Z,18.65
2022-08-22T22:14:16.180Z,18.63
2022-08-22T22:17:20.096Z,18.63
2022-08-22T22:20:24.445Z,18.62
2022-08-22T22:23:27.858Z,18.60
2022-08-22T22:26:31.149Z,18.64
2022-08-22T22:29:35.159Z,18.68
2022-08-22T22:32:37.708Z,18.61
2022-08-22T22:35:40.842Z,18.64
2022-08-22T22:38:43.759Z,18.74
2022-08-22T22:41:47.448Z,18.67
2022-08-22T22:44:49.991Z,18.57
2022-08-22T22:47:52.882Z,18.56
2022-08-22T22:50:55.392Z,18.58
2022-08-22T22:53:58.371Z,18.69
2022-08-22T22:57:00.946Z,18.64
2022-08-22T23:00:07.404Z,18.72
2022-08-22T23:03:10.141Z,18.66
2022-08-22T23:06:18.802Z,18.67
2022-08-22T23:09:21.422Z,18.65
2022-08-22T23:12:31.130Z,18.61
2022-08-22T23:15:33.664Z,18.62
2022-08-22T23:18:36.551Z,18.63
2022-08-22T23:21:39.598Z,18.67
2022-08-22T23:24:42.745Z,18.71
2022-08-22T23:27:52.133Z,18.69
2022-08-22T23:30:55.867Z,18.67
2022-08-22T23:34:13.803Z,18.66
2022-08-22T23:37:19.877Z,18.68
2022-08-22T23:40:22.504Z,18.70
2022-08-22T23:43:25.491Z,18.80
2022-08-22T23:46:28.107Z,18.67
2022-08-22T23:49:34.852Z,18.64
2022-08-22T23:52:37.404Z,18.43
2022-08-22T23:55:40.468Z,18.38
2022-08-22T23:58:43.159Z,18.26
